sensor_id;sensor_type;location;lat;lon;timestamp;temperature;humidity
17687;DHT22;8962;52.538;13.266;2023-06-04T00:00:18;11.50;95.90
17687;DHT22;8962;52.538;13.266;2023-06-04T00:02:45;11.50;95.90
17687;DHT22;8962;52.538;13.266;2023-06-04T00:05:13;11.40;96.20
17687;DHT22;8962;52.538;13.266;2023-06-04T00:07:40;11.30;96.70
17687;DHT22;8962;52.538;13.266;2023-06-04T00:10:08;11.20;97.30
17687;DHT22;8962;52.538;13.266;2023-06-04T00:12:35;11.20;97.80
17687;DHT22;8962;52.538;13.266;2023-06-04T00:15:03;11.10;98.80
17687;DHT22;8962;52.538;13.266;2023-06-04T00:17:32;11.10;99.10
17687;DHT22;8962;52.538;13.266;2023-06-04T00:19:59;11.10;99.50
17687;DHT22;8962;52.538;13.266;2023-06-04T00:22:26;11.10;99.90
17687;DHT22;8962;52.538;13.266;2023-06-04T00:24:53;11.00;99.90
17687;DHT22;8962;52.538;13.266;2023-06-04T00:27:20;11.00;99.90
17687;DHT22;8962;52.538;13.266;2023-06-04T00:29:50;10.90;99.90
17687;DHT22;8962;52.538;13.266;2023-06-04T00:32:17;10.90;99.90
17687;DHT22;8962;52.538;13.266;2023-06-04T00:34:51;10.90;99.90
17687;DHT22;8962;52.538;13.266;2023-06-04T00:37:19;10.90;99.90
17687;DHT22;8962;52.538;13.266;2023-06-04T00:39:47;10.90;99.90
17687;DHT22;8962;52.538;13.266;2023-06-04T00:42:14;10.80;99.90
17687;DHT22;8962;52.538;13.266;2023-06-04T00:44:41;10.90;99.90
17687;DHT22;8962;52.538;13.266;2023-06-04T00:47:10;10.80;99.90
17687;DHT22;8962;52.538;13.266;2023-06-04T00:49:37;10.80;99.90
17687;DHT22;8962;52.538;13.266;2023-06-04T00:52:06;10.80;99.90
17687;DHT22;8962;52.538;13.266;2023-06-04T00:54:34;10.80;99.90
17687;DHT22;8962;52.538;13.266;2023-06-04T00:57:02;10.70;99.90
17687;DHT22;8962;52.538;13.266;2023-06-04T00:59:31;10.70;99.90
17687;DHT22;8962;52.538;13.266;2023-06-04T01:02:02;10.60;99.90
17687;DHT22;8962;52.538;13.266;2023-06-04T01:04:34;10.50;99.90
17687;DHT22;8962;52.538;13.266;2023-06-04T01:07:05;10.50;99.90
17687;DHT22;8962;52.538;13.266;2023-06-04T01:09:34;10.50;99.90
17687;DHT22;8962;52.538;13.266;2023-06-04T01:12:04;10.40;99.90
17687;DHT22;8962;52.538;13.266;2023-06-04T01:14:31;10.40;99.90
17687;DHT22;8962;52.538;13.266;2023-06-04T01:17:01;10.40;99.90
17687;DHT22;8962;52.538;13.266;2023-06-04T01:19:47;10.30;99.90
17687;DHT22;8962;52.538;13.266;2023-06-04T01:22:33;10.40;99.90
17687;DHT22;8962;52.538;13.266;2023-06-04T01:25:04;10.30;99.90
17687;DHT22;8962;52.538;13.266;2023-06-04T01:27:32;10.30;99.90
17687;DHT22;8962;52.538;13.266;2023-06-04T01:30:01;10.20;99.90
17687;DHT22;8962;52.538;13.266;2023-06-04T01:32:29;10.20;99.90
17687;DHT22;8962;52.538;13.266;2023-06-04T01:34:57;10.10;99.90
17687;DHT22;8962;52.538;13.266;2023-06-04T01:37:27;10.10;99.90
17687;DHT22;8962;52.538;13.266;2023-06-04T01:39:54;10.10;99.90
17687;DHT22;8962;52.538;13.266;2023-06-04T01:42:21;10.00;99.90
17687;DHT22;8962;52.538;13.266;2023-06-04T01:44:48;10.00;99.90
17687;DHT22;8962;52.538;13.266;2023-06-04T01:47:16;10.00;99.90
17687;DHT22;8962;52.538;13.266;2023-06-04T01:49:43;9.90;99.90
17687;DHT22;8962;52.538;13.266;2023-06-04T01:52:10;9.90;99.90
17687;DHT22;8962;52.538;13.266;2023-06-04T01:54:39;9.80;99.90
17687;DHT22;8962;52.538;13.266;2023-06-04T01:57:06;9.80;99.90
17687;DHT22;8962;52.538;13.266;2023-06-04T01:59:35;9.80;99.90
17687;DHT22;8962;52.538;13.266;2023-06-04T02:02:04;9.80;99.90
17687;DHT22;8962;52.538;13.266;2023-06-04T02:04:32;9.80;99.90
17687;DHT22;8962;52.538;13.266;2023-06-04T02:07:02;9.70;99.90
17687;DHT22;8962;52.538;13.266;2023-06-04T02:09:29;9.70;99.90
17687;DHT22;8962;52.538;13.266;2023-06-04T02:11:57;9.70;99.90
17687;DHT22;8962;52.538;13.266;2023-06-04T02:14:24;9.60;99.90
17687;DHT22;8962;52.538;13.266;2023-06-04T02:16:51;9.60;99.90
17687;DHT22;8962;52.538;13.266;2023-06-04T02:19:19;9.60;99.90
17687;DHT22;8962;52.538;13.266;2023-06-04T02:21:47;9.50;99.90
17687;DHT22;8962;52.538;13.266;2023-06-04T02:24:16;9.50;99.90
17687;DHT22;8962;52.538;13.266;2023-06-04T02:26:44;9.40;99.90
17687;DHT22;8962;52.538;13.266;2023-06-04T02:29:13;9.40;99.90
17687;DHT22;8962;52.538;13.266;2023-06-04T02:31:40;9.30;99.90
17687;DHT22;8962;52.538;13.266;2023-06-04T02:34:07;9.20;99.90
17687;DHT22;8962;52.538;13.266;2023-06-04T02:36:35;9.20;99.90
17687;DHT22;8962;52.538;13.266;2023-06-04T02:39:02;9.20;99.90
17687;DHT22;8962;52.538;13.266;2023-06-04T02:41:29;9.10;99.90
17687;DHT22;8962;52.538;13.266;2023-06-04T02:43:57;9.10;99.90
17687;DHT22;8962;52.538;13.266;2023-06-04T02:46:25;9.10;99.90
17687;DHT22;8962;52.538;13.266;2023-06-04T02:48:53;9.10;99.90
17687;DHT22;8962;52.538;13.266;2023-06-04T02:51:21;9.00;99.90
17687;DHT22;8962;52.538;13.266;2023-06-04T02:53:48;9.00;99.90
17687;DHT22;8962;52.538;13.266;2023-06-04T02:56:15;9.00;99.90
17687;DHT22;8962;52.538;13.266;2023-06-04T02:58:49;9.00;99.90
17687;DHT22;8962;52.538;13.266;2023-06-04T03:01:20;9.00;99.90
17687;DHT22;8962;52.538;13.266;2023-06-04T03:03:50;8.90;99.90
17687;DHT22;8962;52.538;13.266;2023-06-04T03:06:19;8.90;99.90
17687;DHT22;8962;52.538;13.266;2023-06-04T03:08:47;8.90;99.90
17687;DHT22;8962;52.538;13.266;2023-06-04T03:11:14;8.90;99.90
17687;DHT22;8962;52.538;13.266;2023-06-04T03:13:41;8.90;99.90
17687;DHT22;8962;52.538;13.266;2023-06-04T03:16:08;9.00;99.90
17687;DHT22;8962;52.538;13.266;2023-06-04T03:18:36;9.00;99.90
17687;DHT22;8962;52.538;13.266;2023-06-04T03:21:05;9.00;99.90
17687;DHT22;8962;52.538;13.266;2023-06-04T03:23:32;9.00;99.90
17687;DHT22;8962;52.538;13.266;2023-06-04T03:26:01;9.00;99.90
17687;DHT22;8962;52.538;13.266;2023-06-04T03:28:29;9.00;99.90
17687;DHT22;8962;52.538;13.266;2023-06-04T03:30:56;9.00;99.90
17687;DHT22;8962;52.538;13.266;2023-06-04T03:33:25;9.00;99.90
17687;DHT22;8962;52.538;13.266;2023-06-04T03:35:52;9.10;99.90
17687;DHT22;8962;52.538;13.266;2023-06-04T03:38:24;9.10;99.90
17687;DHT22;8962;52.538;13.266;2023-06-04T03:40:52;9.10;99.90
17687;DHT22;8962;52.538;13.266;2023-06-04T03:43:20;9.10;99.90
17687;DHT22;8962;52.538;13.266;2023-06-04T03:45:49;9.10;99.90
17687;DHT22;8962;52.538;13.266;2023-06-04T03:48:17;9.20;99.90
17687;DHT22;8962;52.538;13.266;2023-06-04T03:50:44;9.20;99.90
17687;DHT22;8962;52.538;13.266;2023-06-04T03:53:14;9.20;99.90
17687;DHT22;8962;52.538;13.266;2023-06-04T03:55:42;9.20;99.90
17687;DHT22;8962;52.538;13.266;2023-06-04T03:58:10;9.30;99.90
17687;DHT22;8962;52.538;13.266;2023-06-04T04:00:40;9.30;99.90
17687;DHT22;8962;52.538;13.266;2023-06-04T04:03:08;9.40;99.90
17687;DHT22;8962;52.538;13.266;2023-06-04T04:05:36;9.40;99.90
17687;DHT22;8962;52.538;13.266;2023-06-04T04:08:04;9.50;99.90
17687;DHT22;8962;52.538;13.266;2023-06-04T04:10:33;9.50;99.90
17687;DHT22;8962;52.538;13.266;2023-06-04T04:13:04;9.60;99.90
17687;DHT22;8962;52.538;13.266;2023-06-04T04:15:35;9.70;99.90
17687;DHT22;8962;52.538;13.266;2023-06-04T04:18:04;9.70;99.90
17687;DHT22;8962;52.538;13.266;2023-06-04T04:20:33;9.80;99.90
17687;DHT22;8962;52.538;13.266;2023-06-04T04:23:05;9.80;99.90
17687;DHT22;8962;52.538;13.266;2023-06-04T04:25:35;9.90;99.90
17687;DHT22;8962;52.538;13.266;2023-06-04T04:28:05;10.00;99.90
17687;DHT22;8962;52.538;13.266;2023-06-04T04:30:33;10.10;99.90
17687;DHT22;8962;52.538;13.266;2023-06-04T04:33:01;10.20;99.90
17687;DHT22;8962;52.538;13.266;2023-06-04T04:35:35;10.20;99.90
17687;DHT22;8962;52.538;13.266;2023-06-04T04:38:04;10.30;99.90
17687;DHT22;8962;52.538;13.266;2023-06-04T04:40:36;10.30;99.90
17687;DHT22;8962;52.538;13.266;2023-06-04T04:43:08;10.50;99.90
17687;DHT22;8962;52.538;13.266;2023-06-04T04:45:36;10.60;99.90
17687;DHT22;8962;52.538;13.266;2023-06-04T04:48:05;10.70;99.90
17687;DHT22;8962;52.538;13.266;2023-06-04T04:50:32;10.80;99.90
17687;DHT22;8962;52.538;13.266;2023-06-04T04:53:00;10.90;99.90
17687;DHT22;8962;52.538;13.266;2023-06-04T04:55:28;11.00;99.90
17687;DHT22;8962;52.538;13.266;2023-06-04T04:57:55;11.10;99.90
17687;DHT22;8962;52.538;13.266;2023-06-04T05:00:25;11.20;99.90
17687;DHT22;8962;52.538;13.266;2023-06-04T05:02:55;11.30;99.90
17687;DHT22;8962;52.538;13.266;2023-06-04T05:05:24;11.30;99.90
17687;DHT22;8962;52.538;13.266;2023-06-04T05:07:52;11.40;99.90
17687;DHT22;8962;52.538;13.266;2023-06-04T05:10:22;11.50;99.90
17687;DHT22;8962;52.538;13.266;2023-06-04T05:12:51;11.60;99.90
17687;DHT22;8962;52.538;13.266;2023-06-04T05:15:19;11.70;99.90
17687;DHT22;8962;52.538;13.266;2023-06-04T05:17:49;11.80;99.90
17687;DHT22;8962;52.538;13.266;2023-06-04T05:20:19;12.00;99.90
17687;DHT22;8962;52.538;13.266;2023-06-04T05:22:49;12.20;99.90
17687;DHT22;8962;52.538;13.266;2023-06-04T05:25:17;12.30;99.90
17687;DHT22;8962;52.538;13.266;2023-06-04T05:27:46;12.40;99.90
17687;DHT22;8962;52.538;13.266;2023-06-04T05:30:16;12.50;99.90
17687;DHT22;8962;52.538;13.266;2023-06-04T05:32:43;12.60;99.90
17687;DHT22;8962;52.538;13.266;2023-06-04T05:35:15;12.70;99.90
17687;DHT22;8962;52.538;13.266;2023-06-04T05:37:43;12.90;99.90
17687;DHT22;8962;52.538;13.266;2023-06-04T05:40:12;13.00;99.90
17687;DHT22;8962;52.538;13.266;2023-06-04T05:42:41;13.10;99.90
17687;DHT22;8962;52.538;13.266;2023-06-04T05:45:09;13.20;99.90
17687;DHT22;8962;52.538;13.266;2023-06-04T05:47:39;13.40;99.90
17687;DHT22;8962;52.538;13.266;2023-06-04T05:50:07;13.60;99.90
17687;DHT22;8962;52.538;13.266;2023-06-04T05:52:36;13.70;99.90
17687;DHT22;8962;52.538;13.266;2023-06-04T05:55:06;13.90;99.90
17687;DHT22;8962;52.538;13.266;2023-06-04T05:57:35;14.00;99.90
17687;DHT22;8962;52.538;13.266;2023-06-04T06:00:03;14.10;99.90
17687;DHT22;8962;52.538;13.266;2023-06-04T06:02:40;14.20;99.90
17687;DHT22;8962;52.538;13.266;2023-06-04T06:05:18;14.40;99.90
17687;DHT22;8962;52.538;13.266;2023-06-04T06:07:47;14.50;99.90
17687;DHT22;8962;52.538;13.266;2023-06-04T06:10:14;14.60;99.90
17687;DHT22;8962;52.538;13.266;2023-06-04T06:12:42;14.70;99.90
17687;DHT22;8962;52.538;13.266;2023-06-04T06:15:09;15.00;99.90
17687;DHT22;8962;52.538;13.266;2023-06-04T06:17:38;15.20;99.90
17687;DHT22;8962;52.538;13.266;2023-06-04T06:20:06;15.40;99.90
17687;DHT22;8962;52.538;13.266;2023-06-04T06:22:34;15.60;99.90
17687;DHT22;8962;52.538;13.266;2023-06-04T06:25:04;15.70;99.90
17687;DHT22;8962;52.538;13.266;2023-06-04T06:27:39;15.90;99.90
17687;DHT22;8962;52.538;13.266;2023-06-04T06:30:07;16.00;99.90
17687;DHT22;8962;52.538;13.266;2023-06-04T06:32:35;16.20;99.90
17687;DHT22;8962;52.538;13.266;2023-06-04T06:35:02;16.30;99.90
17687;DHT22;8962;52.538;13.266;2023-06-04T06:37:30;16.60;99.90
17687;DHT22;8962;52.538;13.266;2023-06-04T06:39:57;16.70;99.90
17687;DHT22;8962;52.538;13.266;2023-06-04T06:42:25;16.90;99.90
17687;DHT22;8962;52.538;13.266;2023-06-04T06:44:55;17.10;99.90
17687;DHT22;8962;52.538;13.266;2023-06-04T06:47:22;17.30;99.70
17687;DHT22;8962;52.538;13.266;2023-06-04T06:49:50;17.40;98.80
17687;DHT22;8962;52.538;13.266;2023-06-04T06:52:17;17.50;97.80
17687;DHT22;8962;52.538;13.266;2023-06-04T06:54:45;17.60;94.80
17687;DHT22;8962;52.538;13.266;2023-06-04T06:57:12;17.80;94.40
17687;DHT22;8962;52.538;13.266;2023-06-04T06:59:41;18.00;93.10
17687;DHT22;8962;52.538;13.266;2023-06-04T07:02:10;18.20;92.20
17687;DHT22;8962;52.538;13.266;2023-06-04T07:04:37;18.20;91.90
17687;DHT22;8962;52.538;13.266;2023-06-04T07:07:04;18.50;90.80
17687;DHT22;8962;52.538;13.266;2023-06-04T07:09:31;18.70;86.30
17687;DHT22;8962;52.538;13.266;2023-06-04T07:11:58;18.80;89.60
17687;DHT22;8962;52.538;13.266;2023-06-04T07:14:25;18.80;75.70
17687;DHT22;8962;52.538;13.266;2023-06-04T07:16:54;18.80;78.50
17687;DHT22;8962;52.538;13.266;2023-06-04T07:19:21;19.00;77.30
17687;DHT22;8962;52.538;13.266;2023-06-04T07:21:50;19.00;66.70
17687;DHT22;8962;52.538;13.266;2023-06-04T07:24:17;18.90;69.70
17687;DHT22;8962;52.538;13.266;2023-06-04T07:26:44;19.20;68.50
17687;DHT22;8962;52.538;13.266;2023-06-04T07:29:11;19.50;68.30
17687;DHT22;8962;52.538;13.266;2023-06-04T07:31:38;19.70;65.30
17687;DHT22;8962;52.538;13.266;2023-06-04T07:34:07;19.80;62.40
17687;DHT22;8962;52.538;13.266;2023-06-04T07:36:34;19.90;56.70
17687;DHT22;8962;52.538;13.266;2023-06-04T07:39:02;20.00;55.20
17687;DHT22;8962;52.538;13.266;2023-06-04T07:41:30;20.10;54.10
17687;DHT22;8962;52.538;13.266;2023-06-04T07:43:57;20.20;55.60
17687;DHT22;8962;52.538;13.266;2023-06-04T07:46:24;20.00;50.20
17687;DHT22;8962;52.538;13.266;2023-06-04T07:48:51;20.40;50.50
17687;DHT22;8962;52.538;13.266;2023-06-04T07:51:20;20.30;46.20
17687;DHT22;8962;52.538;13.266;2023-06-04T07:53:48;20.30;46.60
17687;DHT22;8962;52.538;13.266;2023-06-04T07:56:15;20.00;45.90
17687;DHT22;8962;52.538;13.266;2023-06-04T07:58:43;20.30;46.20
17687;DHT22;8962;52.538;13.266;2023-06-04T08:01:12;20.30;45.20
17687;DHT22;8962;52.538;13.266;2023-06-04T08:03:39;20.50;47.10
17687;DHT22;8962;52.538;13.266;2023-06-04T08:06:07;20.50;44.70
17687;DHT22;8962;52.538;13.266;2023-06-04T08:08:36;20.50;45.20
17687;DHT22;8962;52.538;13.266;2023-06-04T08:11:03;20.70;44.10
17687;DHT22;8962;52.538;13.266;2023-06-04T08:13:30;21.00;43.90
17687;DHT22;8962;52.538;13.266;2023-06-04T08:15:57;21.30;41.20
17687;DHT22;8962;52.538;13.266;2023-06-04T08:18:24;21.60;39.10
17687;DHT22;8962;52.538;13.266;2023-06-04T08:20:51;21.60;40.00
17687;DHT22;8962;52.538;13.266;2023-06-04T08:23:18;21.60;40.00
17687;DHT22;8962;52.538;13.266;2023-06-04T08:25:47;21.60;39.30
17687;DHT22;8962;52.538;13.266;2023-06-04T08:28:14;21.70;38.80
17687;DHT22;8962;52.538;13.266;2023-06-04T08:30:42;21.40;37.50
17687;DHT22;8962;52.538;13.266;2023-06-04T08:33:10;21.20;38.30
17687;DHT22;8962;52.538;13.266;2023-06-04T08:35:37;21.60;37.00
17687;DHT22;8962;52.538;13.266;2023-06-04T08:38:04;21.70;37.30
17687;DHT22;8962;52.538;13.266;2023-06-04T08:40:31;21.80;38.10
17687;DHT22;8962;52.538;13.266;2023-06-04T08:43:01;21.60;37.10
17687;DHT22;8962;52.538;13.266;2023-06-04T08:45:33;21.90;37.70
17687;DHT22;8962;52.538;13.266;2023-06-04T08:48:09;21.80;35.60
17687;DHT22;8962;52.538;13.266;2023-06-04T08:50:39;21.60;34.60
17687;DHT22;8962;52.538;13.266;2023-06-04T08:53:11;21.70;35.20
17687;DHT22;8962;52.538;13.266;2023-06-04T08:55:40;21.60;35.60
17687;DHT22;8962;52.538;13.266;2023-06-04T08:58:10;21.60;33.90
17687;DHT22;8962;52.538;13.266;2023-06-04T09:00:38;22.00;33.20
17687;DHT22;8962;52.538;13.266;2023-06-04T09:03:06;22.00;34.40
17687;DHT22;8962;52.538;13.266;2023-06-04T09:05:33;21.70;33.90
17687;DHT22;8962;52.538;13.266;2023-06-04T09:08:03;21.40;32.90
17687;DHT22;8962;52.538;13.266;2023-06-04T09:10:32;21.50;34.80
17687;DHT22;8962;52.538;13.266;2023-06-04T09:13:02;21.80;35.30
17687;DHT22;8962;52.538;13.266;2023-06-04T09:15:31;22.20;34.40
17687;DHT22;8962;52.538;13.266;2023-06-04T09:17:59;22.50;33.80
17687;DHT22;8962;52.538;13.266;2023-06-04T09:20:27;22.70;32.40
17687;DHT22;8962;52.538;13.266;2023-06-04T09:22:54;22.60;31.80
17687;DHT22;8962;52.538;13.266;2023-06-04T09:25:22;22.40;31.10
17687;DHT22;8962;52.538;13.266;2023-06-04T09:27:51;22.50;31.10
17687;DHT22;8962;52.538;13.266;2023-06-04T09:30:18;22.60;30.00
17687;DHT22;8962;52.538;13.266;2023-06-04T09:32:46;22.80;29.80
17687;DHT22;8962;52.538;13.266;2023-06-04T09:35:15;22.90;29.90
17687;DHT22;8962;52.538;13.266;2023-06-04T09:37:43;22.80;29.90
17687;DHT22;8962;52.538;13.266;2023-06-04T09:40:11;22.70;30.60
17687;DHT22;8962;52.538;13.266;2023-06-04T09:42:43;22.90;29.70
17687;DHT22;8962;52.538;13.266;2023-06-04T09:45:11;22.90;29.60
17687;DHT22;8962;52.538;13.266;2023-06-04T09:47:39;22.90;30.40
17687;DHT22;8962;52.538;13.266;2023-06-04T09:50:10;23.10;29.20
17687;DHT22;8962;52.538;13.266;2023-06-04T09:52:38;23.30;28.40
17687;DHT22;8962;52.538;13.266;2023-06-04T09:55:16;23.50;27.90
17687;DHT22;8962;52.538;13.266;2023-06-04T09:57:47;23.40;27.50
17687;DHT22;8962;52.538;13.266;2023-06-04T10:00:17;23.50;27.60
17687;DHT22;8962;52.538;13.266;2023-06-04T10:02:44;23.60;27.80
17687;DHT22;8962;52.538;13.266;2023-06-04T10:05:14;23.80;27.40
17687;DHT22;8962;52.538;13.266;2023-06-04T10:07:42;23.70;27.00
17687;DHT22;8962;52.538;13.266;2023-06-04T10:10:14;23.60;27.50
17687;DHT22;8962;52.538;13.266;2023-06-04T10:12:42;23.60;26.70
17687;DHT22;8962;52.538;13.266;2023-06-04T10:15:11;23.70;27.70
17687;DHT22;8962;52.538;13.266;2023-06-04T10:17:39;23.80;26.90
17687;DHT22;8962;52.538;13.266;2023-06-04T10:20:07;23.70;27.40
17687;DHT22;8962;52.538;13.266;2023-06-04T10:22:38;23.60;27.10
17687;DHT22;8962;52.538;13.266;2023-06-04T10:25:07;23.50;27.40
17687;DHT22;8962;52.538;13.266;2023-06-04T10:27:35;23.50;28.40
17687;DHT22;8962;52.538;13.266;2023-06-04T10:30:04;23.50;27.70
17687;DHT22;8962;52.538;13.266;2023-06-04T10:32:34;23.60;27.30
17687;DHT22;8962;52.538;13.266;2023-06-04T10:35:03;23.60;27.10
17687;DHT22;8962;52.538;13.266;2023-06-04T10:37:33;23.80;26.80
17687;DHT22;8962;52.538;13.266;2023-06-04T10:40:03;23.70;26.40
17687;DHT22;8962;52.538;13.266;2023-06-04T10:42:38;23.70;26.50
17687;DHT22;8962;52.538;13.266;2023-06-04T10:45:06;23.80;27.10
17687;DHT22;8962;52.538;13.266;2023-06-04T10:47:34;23.90;27.60
17687;DHT22;8962;52.538;13.266;2023-06-04T10:50:11;23.80;27.20
17687;DHT22;8962;52.538;13.266;2023-06-04T10:52:39;23.80;25.90
17687;DHT22;8962;52.538;13.266;2023-06-04T10:55:18;23.40;26.30
17687;DHT22;8962;52.538;13.266;2023-06-04T10:57:51;23.10;26.60
17687;DHT22;8962;52.538;13.266;2023-06-04T11:00:19;23.10;26.60
17687;DHT22;8962;52.538;13.266;2023-06-04T11:02:54;23.30;26.80
17687;DHT22;8962;52.538;13.266;2023-06-04T11:05:32;23.60;26.20
17687;DHT22;8962;52.538;13.266;2023-06-04T11:08:01;23.90;26.10
17687;DHT22;8962;52.538;13.266;2023-06-04T11:10:34;24.00;26.30
17687;DHT22;8962;52.538;13.266;2023-06-04T11:13:03;23.90;25.90
17687;DHT22;8962;52.538;13.266;2023-06-04T11:15:41;24.10;26.50
17687;DHT22;8962;52.538;13.266;2023-06-04T11:18:13;24.20;25.80
17687;DHT22;8962;52.538;13.266;2023-06-04T11:20:40;24.20;26.10
17687;DHT22;8962;52.538;13.266;2023-06-04T11:23:08;23.60;24.80
17687;DHT22;8962;52.538;13.266;2023-06-04T11:25:36;23.50;25.60
17687;DHT22;8962;52.538;13.266;2023-06-04T11:28:04;23.90;25.10
17687;DHT22;8962;52.538;13.266;2023-06-04T11:30:32;24.20;24.80
17687;DHT22;8962;52.538;13.266;2023-06-04T11:33:02;24.50;24.30
17687;DHT22;8962;52.538;13.266;2023-06-04T11:35:29;25.70;23.30
17687;DHT22;8962;52.538;13.266;2023-06-04T11:37:57;27.10;21.20
17687;DHT22;8962;52.538;13.266;2023-06-04T11:40:25;28.00;19.80
17687;DHT22;8962;52.538;13.266;2023-06-04T11:42:55;28.10;20.60
17687;DHT22;8962;52.538;13.266;2023-06-04T11:45:22;27.90;18.80
17687;DHT22;8962;52.538;13.266;2023-06-04T11:47:52;27.30;20.20
17687;DHT22;8962;52.538;13.266;2023-06-04T11:50:21;27.10;20.70
17687;DHT22;8962;52.538;13.266;2023-06-04T11:52:49;27.10;20.00
17687;DHT22;8962;52.538;13.266;2023-06-04T11:55:16;27.50;18.80
17687;DHT22;8962;52.538;13.266;2023-06-04T11:57:46;28.10;18.80
17687;DHT22;8962;52.538;13.266;2023-06-04T12:00:15;29.10;18.70
17687;DHT22;8962;52.538;13.266;2023-06-04T12:02:53;29.20;16.60
17687;DHT22;8962;52.538;13.266;2023-06-04T12:05:22;28.60;16.90
17687;DHT22;8962;52.538;13.266;2023-06-04T12:07:50;28.60;17.70
17687;DHT22;8962;52.538;13.266;2023-06-04T12:10:18;28.70;16.80
17687;DHT22;8962;52.538;13.266;2023-06-04T12:12:46;29.50;16.50
17687;DHT22;8962;52.538;13.266;2023-06-04T12:15:20;30.30;15.20
17687;DHT22;8962;52.538;13.266;2023-06-04T12:17:50;30.40;14.60
17687;DHT22;8962;52.538;13.266;2023-06-04T12:20:18;30.30;14.40
17687;DHT22;8962;52.538;13.266;2023-06-04T12:22:46;31.10;13.70
17687;DHT22;8962;52.538;13.266;2023-06-04T12:25:25;31.40;13.40
17687;DHT22;8962;52.538;13.266;2023-06-04T12:27:53;31.60;13.30
17687;DHT22;8962;52.538;13.266;2023-06-04T12:30:23;30.80;14.10
17687;DHT22;8962;52.538;13.266;2023-06-04T12:33:01;31.50;13.40
17687;DHT22;8962;52.538;13.266;2023-06-04T12:35:28;32.00;12.80
17687;DHT22;8962;52.538;13.266;2023-06-04T12:37:55;31.40;14.20
17687;DHT22;8962;52.538;13.266;2023-06-04T12:40:22;31.20;13.10
17687;DHT22;8962;52.538;13.266;2023-06-04T12:42:50;30.50;13.30
17687;DHT22;8962;52.538;13.266;2023-06-04T12:45:17;31.30;12.40
17687;DHT22;8962;52.538;13.266;2023-06-04T12:47:46;31.50;12.80
17687;DHT22;8962;52.538;13.266;2023-06-04T12:50:13;32.10;11.60
17687;DHT22;8962;52.538;13.266;2023-06-04T12:52:41;31.50;12.80
17687;DHT22;8962;52.538;13.266;2023-06-04T12:55:08;30.40;12.40
17687;DHT22;8962;52.538;13.266;2023-06-04T12:57:36;29.60;13.60
17687;DHT22;8962;52.538;13.266;2023-06-04T13:00:03;29.90;13.40
17687;DHT22;8962;52.538;13.266;2023-06-04T13:02:30;30.10;13.30
17687;DHT22;8962;52.538;13.266;2023-06-04T13:04:59;31.00;12.30
17687;DHT22;8962;52.538;13.266;2023-06-04T13:07:26;31.40;12.50
17687;DHT22;8962;52.538;13.266;2023-06-04T13:09:53;31.20;12.60
17687;DHT22;8962;52.538;13.266;2023-06-04T13:12:20;31.60;11.80
17687;DHT22;8962;52.538;13.266;2023-06-04T13:14:47;31.60;11.20
17687;DHT22;8962;52.538;13.266;2023-06-04T13:17:14;31.50;11.30
17687;DHT22;8962;52.538;13.266;2023-06-04T13:19:41;31.50;11.40
17687;DHT22;8962;52.538;13.266;2023-06-04T13:22:10;32.10;10.80
17687;DHT22;8962;52.538;13.266;2023-06-04T13:24:37;33.90;9.70
17687;DHT22;8962;52.538;13.266;2023-06-04T13:27:04;33.00;10.40
17687;DHT22;8962;52.538;13.266;2023-06-04T13:29:32;32.70;10.10
17687;DHT22;8962;52.538;13.266;2023-06-04T13:32:00;32.20;10.50
17687;DHT22;8962;52.538;13.266;2023-06-04T13:34:28;31.70;11.50
17687;DHT22;8962;52.538;13.266;2023-06-04T13:36:57;31.30;11.00
17687;DHT22;8962;52.538;13.266;2023-06-04T13:39:28;31.30;10.80
17687;DHT22;8962;52.538;13.266;2023-06-04T13:41:55;31.60;10.90
17687;DHT22;8962;52.538;13.266;2023-06-04T13:44:22;31.60;10.00
17687;DHT22;8962;52.538;13.266;2023-06-04T13:46:51;31.30;11.60
17687;DHT22;8962;52.538;13.266;2023-06-04T13:49:19;31.60;11.50
17687;DHT22;8962;52.538;13.266;2023-06-04T13:51:46;32.30;10.80
17687;DHT22;8962;52.538;13.266;2023-06-04T13:54:13;32.00;10.90
17687;DHT22;8962;52.538;13.266;2023-06-04T13:56:43;32.40;10.40
17687;DHT22;8962;52.538;13.266;2023-06-04T13:59:12;32.10;10.60
17687;DHT22;8962;52.538;13.266;2023-06-04T14:01:39;32.00;10.50
17687;DHT22;8962;52.538;13.266;2023-06-04T14:04:07;31.50;10.90
17687;DHT22;8962;52.538;13.266;2023-06-04T14:06:35;31.50;10.70
17687;DHT22;8962;52.538;13.266;2023-06-04T14:09:03;32.30;10.70
17687;DHT22;8962;52.538;13.266;2023-06-04T14:11:31;31.20;10.30
17687;DHT22;8962;52.538;13.266;2023-06-04T14:14:00;30.80;11.00
17687;DHT22;8962;52.538;13.266;2023-06-04T14:16:28;31.80;10.20
17687;DHT22;8962;52.538;13.266;2023-06-04T14:18:55;30.60;10.60
17687;DHT22;8962;52.538;13.266;2023-06-04T14:21:22;31.60;10.40
17687;DHT22;8962;52.538;13.266;2023-06-04T14:23:49;32.50;9.90
17687;DHT22;8962;52.538;13.266;2023-06-04T14:28:43;32.80;8.80
17687;DHT22;8962;52.538;13.266;2023-06-04T14:31:12;33.00;9.20
17687;DHT22;8962;52.538;13.266;2023-06-04T14:33:39;32.90;9.40
17687;DHT22;8962;52.538;13.266;2023-06-04T14:36:08;33.10;9.10
17687;DHT22;8962;52.538;13.266;2023-06-04T14:38:35;32.80;9.10
17687;DHT22;8962;52.538;13.266;2023-06-04T14:41:02;32.50;9.40
17687;DHT22;8962;52.538;13.266;2023-06-04T14:43:30;33.10;9.60
17687;DHT22;8962;52.538;13.266;2023-06-04T14:45:57;33.00;9.20
17687;DHT22;8962;52.538;13.266;2023-06-04T14:48:25;32.80;9.10
17687;DHT22;8962;52.538;13.266;2023-06-04T14:50:52;32.50;9.30
17687;DHT22;8962;52.538;13.266;2023-06-04T14:53:21;32.20;9.50
17687;DHT22;8962;52.538;13.266;2023-06-04T14:55:49;33.00;9.60
17687;DHT22;8962;52.538;13.266;2023-06-04T14:58:17;32.90;9.50
17687;DHT22;8962;52.538;13.266;2023-06-04T15:00:45;32.40;9.70
17687;DHT22;8962;52.538;13.266;2023-06-04T15:03:12;33.00;9.50
17687;DHT22;8962;52.538;13.266;2023-06-04T15:05:42;34.50;8.40
17687;DHT22;8962;52.538;13.266;2023-06-04T15:08:09;35.30;7.70
17687;DHT22;8962;52.538;13.266;2023-06-04T15:10:36;36.00;7.10
17687;DHT22;8962;52.538;13.266;2023-06-04T15:13:03;35.70;7.30
17687;DHT22;8962;52.538;13.266;2023-06-04T15:15:31;35.70;7.20
17687;DHT22;8962;52.538;13.266;2023-06-04T15:17:58;35.90;7.30
17687;DHT22;8962;52.538;13.266;2023-06-04T15:20:25;33.20;8.70
17687;DHT22;8962;52.538;13.266;2023-06-04T15:22:55;33.70;9.10
17687;DHT22;8962;52.538;13.266;2023-06-04T15:25:22;33.30;8.90
17687;DHT22;8962;52.538;13.266;2023-06-04T15:27:49;34.70;8.40
17687;DHT22;8962;52.538;13.266;2023-06-04T15:30:17;35.00;8.30
17687;DHT22;8962;52.538;13.266;2023-06-04T15:32:44;35.60;7.70
17687;DHT22;8962;52.538;13.266;2023-06-04T15:35:11;35.30;7.90
17687;DHT22;8962;52.538;13.266;2023-06-04T15:37:38;35.70;7.90
17687;DHT22;8962;52.538;13.266;2023-06-04T15:40:08;35.50;7.90
17687;DHT22;8962;52.538;13.266;2023-06-04T15:42:36;34.50;8.30
17687;DHT22;8962;52.538;13.266;2023-06-04T15:45:04;33.70;9.20